»·PEaware :: DLH430 KLAX-KDEN

DLH430 :: KLAX-KDEN

FLIGHT INFORMATION

Flight Status: Arrived
Operator:
Lufthansa
More flights by this operator :: More flights under this callsign
Pilot: Alfredo R. (12181)
Aircraft: Unknown
(B748)
More flights by this aircraft type
Origin: KLAX Los Angeles Intl
United States
Destination: KDEN Denver Intl
United States
More flights between these airports :: More routes between these airports
Route: +ORCKA2 LAS J146 DVC WOLLF TELLR2
File this flight plan on PilotEdge
Remarks:
Altitude:
(Current/Filed)
41,000ft
Speed:
(Current/Filed)
425kts
Departed: 13-May-18 03:47 PM
Arrived: 13-May-18 05:30 PM
Distance/Time
Traveled:
748nm/1:43
Distance/Time
To Go:
Arrived

Flight Plot

Page will automatically refresh every two minutes.

Flight plan parsing failed; only flown route is shown


Map Options




Map Legend


Flown Route
Filed Route
Departure Airport
Arrival Airport
Navaid (VOR, NDB)
Fix

Horizontal Profiles

Position Reports

Time Latitude Longitude Heading Altitude Ground
Speed
13-May-18 15:04 33.940916 -118.409288 259 131ft 0kts
13-May-18 15:05 33.940916 -118.409288 259 131ft 0kts
13-May-18 15:06 33.940916 -118.409288 259 131ft 0kts
13-May-18 15:07 33.940916 -118.409288 259 131ft 0kts
13-May-18 15:08 33.940916 -118.409288 259 131ft 0kts
13-May-18 15:09 33.940916 -118.409288 259 131ft 0kts
13-May-18 15:10 33.940916 -118.409288 259 131ft 0kts
13-May-18 15:11 33.940916 -118.409288 259 131ft 0kts
13-May-18 15:12 33.940916 -118.409288 259 131ft 0kts
13-May-18 15:13 33.940916 -118.409288 259 131ft 0kts
13-May-18 15:14 33.940916 -118.409288 259 131ft 0kts
13-May-18 15:15 33.940916 -118.409288 259 131ft 0kts
13-May-18 15:16 33.940916 -118.409288 259 131ft 0kts
13-May-18 15:17 33.940916 -118.409288 259 131ft 0kts
13-May-18 15:18 33.940916 -118.409288 259 131ft 0kts
13-May-18 15:19 33.940916 -118.409288 259 131ft 0kts
13-May-18 15:20 33.940916 -118.409288 259 131ft 0kts
13-May-18 15:21 33.940916 -118.409288 259 131ft 0kts
13-May-18 15:22 33.940916 -118.409288 259 131ft 0kts
13-May-18 15:23 33.940917 -118.409288 259 131ft 0kts
13-May-18 15:24 33.940917 -118.409288 259 131ft 0kts
13-May-18 15:25 33.940917 -118.409288 259 131ft 0kts
13-May-18 15:26 33.940917 -118.409288 259 131ft 0kts
13-May-18 15:27 33.940921 -118.409257 260 131ft 2kts
13-May-18 15:28 33.941034 -118.408555 241 131ft 2kts
13-May-18 15:29 33.941542 -118.408263 171 130ft 2kts
13-May-18 15:30 33.940919 -118.408175 172 131ft 7kts
13-May-18 15:31 33.939550 -118.407966 173 133ft 0kts
13-May-18 15:32 33.939550 -118.407966 173 133ft 0kts
13-May-18 15:33 33.939550 -118.407966 173 133ft 0kts
13-May-18 15:34 33.939550 -118.407966 173 133ft 0kts
13-May-18 15:35 33.939550 -118.407966 173 133ft 0kts
13-May-18 15:36 33.939474 -118.407955 173 133ft 2kts
13-May-18 15:37 33.938590 -118.409882 263 133ft 9kts
13-May-18 15:38 33.939734 -118.411745 353 130ft 10kts
13-May-18 15:39 33.943038 -118.412240 352 127ft 13kts
13-May-18 15:40 33.946646 -118.412788 352 128ft 10kts
13-May-18 15:41 33.948025 -118.411943 79 130ft 5kts
13-May-18 15:42 33.948277 -118.409546 82 130ft 9kts
13-May-18 15:43 33.948660 -118.405855 83 127ft 13kts
13-May-18 15:44 33.949108 -118.402070 54 123ft 1kts
13-May-18 15:45 33.949607 -118.401785 359 123ft 7kts
13-May-18 15:46 33.950035 -118.403072 264 123ft 13kts
13-May-18 15:47 33.945915 -118.437623 259 1110ft 146kts
13-May-18 15:48 33.941611 -118.493340 262 1741ft 191kts
13-May-18 15:49 33.931773 -118.563829 261 2478ft 240kts
13-May-18 15:50 33.898837 -118.626385 182 4029ft 266kts
13-May-18 15:51 33.873542 -118.559260 58 6115ft 279kts
13-May-18 15:52 33.915685 -118.480624 39 8699ft 283kts
13-May-18 15:53 33.961923 -118.401583 62 10845ft 321kts
13-May-18 15:54 34.009469 -118.295469 55 11770ft 400kts
13-May-18 15:55 34.074079 -118.181770 52 14372ft 431kts
13-May-18 15:56 34.143143 -118.062242 53 17560ft 446kts
13-May-18 15:57 34.213180 -117.938564 52 20242ft 464kts
13-May-18 15:58 34.286546 -117.807358 52 22865ft 477kts
13-May-18 15:59 34.361724 -117.672667 51 24871ft 498kts
13-May-18 16:00 34.443624 -117.535607 49 26958ft 513kts
13-May-18 16:01 34.528737 -117.394179 49 28829ft 530kts
13-May-18 16:02 34.614453 -117.248481 50 31216ft 532kts
13-May-18 16:03 34.699748 -117.102553 51 33151ft 534kts
13-May-18 16:04 34.785745 -116.957494 51 35436ft 521kts
13-May-18 16:05 34.870662 -116.815325 51 36744ft 523kts
13-May-18 16:06 34.955858 -116.673027 51 37727ft 527kts
13-May-18 16:07 35.041879 -116.527716 51 38606ft 531kts
13-May-18 16:08 35.127352 -116.384038 50 39597ft 528kts
13-May-18 16:09 35.200173 -116.265766 50 40336ft 524kts
13-May-18 16:10 35.289323 -116.124677 49 40907ft 517kts
13-May-18 16:11 35.378039 -115.989029 48 40947ft 521kts
13-May-18 16:12 35.470398 -115.854985 46 40945ft 521kts
13-May-18 16:13 35.562744 -115.724662 46 40932ft 515kts
13-May-18 16:14 35.654893 -115.591932 48 40945ft 523kts
13-May-18 16:15 35.758861 -115.471107 27 40941ft 519kts
13-May-18 16:16 35.879603 -115.380447 30 40935ft 514kts
13-May-18 16:17 35.994297 -115.282172 34 40900ft 516kts
13-May-18 16:18 36.089398 -115.153401 66 40915ft 528kts
13-May-18 16:19 36.137383 -114.984173 67 40893ft 528kts
13-May-18 16:20 36.194037 -114.817054 70 40892ft 528kts
13-May-18 16:21 36.245300 -114.647233 69 40899ft 533kts
13-May-18 16:22 36.297410 -114.478432 68 40896ft 526kts
13-May-18 16:23 36.351274 -114.312075 68 40904ft 526kts
13-May-18 16:24 36.405102 -114.143192 70 40890ft 532kts
13-May-18 16:25 36.456385 -113.972633 70 40944ft 531kts
13-May-18 16:26 36.507707 -113.801875 70 40949ft 531kts
13-May-18 16:27 36.559144 -113.628990 70 40953ft 536kts
13-May-18 16:28 36.609844 -113.455700 70 40954ft 535kts
13-May-18 16:29 36.661472 -113.284020 70 40909ft 523kts
13-May-18 16:30 36.713225 -113.113705 70 40823ft 537kts
13-May-18 16:31 36.766303 -112.935790 71 40673ft 556kts
13-May-18 16:32 36.817968 -112.756514 71 41008ft 529kts
13-May-18 16:33 36.866705 -112.582719 72 41046ft 537kts
13-May-18 16:34 36.915134 -112.406910 72 41045ft 537kts
13-May-18 16:35 36.965741 -112.231660 71 41036ft 538kts
13-May-18 16:36 37.016699 -112.056627 72 40976ft 538kts
13-May-18 16:37 37.065690 -111.880454 73 40978ft 538kts
13-May-18 16:38 37.113125 -111.703160 73 40972ft 537kts
13-May-18 16:39 37.160067 -111.526024 73 40973ft 537kts
13-May-18 16:40 37.207769 -111.349467 73 40974ft 537kts
13-May-18 16:41 37.256356 -111.172738 73 40966ft 540kts
13-May-18 16:42 37.304897 -110.994087 74 40968ft 541kts
13-May-18 16:43 37.352337 -110.818919 74 40972ft 541kts
13-May-18 16:44 37.399578 -110.644412 74 40973ft 539kts
13-May-18 16:45 37.445908 -110.471029 74 41055ft 539kts
13-May-18 16:46 37.492375 -110.291983 75 41096ft 538kts
13-May-18 16:47 37.538011 -110.113160 75 41100ft 539kts
13-May-18 16:48 37.583320 -109.934934 75 41099ft 539kts
13-May-18 16:49 37.628549 -109.754784 75 41103ft 539kts
13-May-18 16:50 37.673510 -109.574364 75 41106ft 540kts
13-May-18 16:51 37.718719 -109.394768 74 41108ft 540kts
13-May-18 16:52 37.764012 -109.214590 75 41105ft 538kts
13-May-18 16:53 37.808645 -109.035116 75 41103ft 537kts
13-May-18 16:54 37.861589 -108.859148 63 41099ft 542kts
13-May-18 16:55 37.940070 -108.696300 58 41065ft 542kts
13-May-18 16:56 38.015112 -108.547175 59 41063ft 542kts
13-May-18 16:57 38.093100 -108.384472 60 41066ft 542kts
13-May-18 16:58 38.169573 -108.225307 59 41051ft 535kts
13-May-18 16:59 38.247910 -108.065207 59 41155ft 535kts
13-May-18 17:00 38.325813 -107.904456 60 40989ft 535kts
13-May-18 17:01 38.400729 -107.741314 62 40992ft 535kts
13-May-18 17:02 38.472809 -107.575997 63 40992ft 534kts
13-May-18 17:03 38.540919 -107.411256 64 40819ft 528kts
13-May-18 17:04 38.607008 -107.247532 64 39127ft 523kts
13-May-18 17:05 38.676025 -107.090441 62 37312ft 499kts
13-May-18 17:06 38.745519 -106.942804 61 35545ft 486kts
13-May-18 17:07 38.818264 -106.796559 59 34101ft 489kts
13-May-18 17:08 38.892779 -106.651123 59 32673ft 488kts
13-May-18 17:09 38.966735 -106.504935 59 31251ft 487kts
13-May-18 17:10 39.034522 -106.355611 64 29865ft 483kts
13-May-18 17:11 39.096955 -106.204035 65 28350ft 486kts
13-May-18 17:12 39.158195 -106.052773 65 26737ft 473kts
13-May-18 17:13 39.216577 -105.906452 65 24916ft 449kts
13-May-18 17:14 39.272640 -105.769349 59 23347ft 427kts
13-May-18 17:15 39.330761 -105.642939 65 21691ft 401kts
13-May-18 17:16 39.378370 -105.518452 65 20069ft 371kts
13-May-18 17:17 39.396117 -105.395062 92 18876ft 345kts
13-May-18 17:18 39.401226 -105.272995 90 17687ft 339kts
13-May-18 17:19 39.410002 -105.155886 89 16430ft 318kts
13-May-18 17:20 39.420014 -105.045139 89 15224ft 307kts
13-May-18 17:21 39.430764 -104.940339 87 14054ft 299kts
13-May-18 17:22 39.444946 -104.842588 80 12808ft 264kts
13-May-18 17:23 39.489201 -104.773324 30 11696ft 274kts
13-May-18 17:24 39.555494 -104.729941 32 10505ft 262kts
13-May-18 17:25 39.614760 -104.681740 37 9321ft 234kts
13-May-18 17:26 39.670923 -104.661617 0 8051ft 209kts
13-May-18 17:27 39.725127 -104.665022 1 7556ft 192kts
13-May-18 17:28 39.774094 -104.663559 8 6969ft 159kts
13-May-18 17:29 39.817967 -104.660708 359 5701ft 154kts
13-May-18 17:30 39.842471 -104.660397 0 5411ft 30kts
13-May-18 17:31 39.848918 -104.661456 331 5410ft 4kts
13-May-18 17:32 39.850788 -104.662367 357 5415ft 13kts
13-May-18 17:33 39.855478 -104.662460 327 5430ft 14kts

Navigation Log

Ident Type
Flight plan parsing failed, navigation log unavailable